Aérodrome :
LOGIN :

S'inscrire | Disclaimer

   EN    FR    IT 

 










Légende :    VFR   VFR Marginal   IFR   IFR Intensif   IFR Très Intensif
Visi : 
Plafond : 
>= 8 km
>= 3000ft
5 à 8 km
1000 à 3000 ft
1500m à 5 km
500 à 1000 ft
800 à 1500m
200 à 500 ft
< 800m
< 200 ft
Symboles :   Orages  Brouillard  Fortes neiges  Fortes précipitations  Vent > 20 kt
SIGMETs :   Divers  Orages  Givrage  Turbulence  Onde Orograph.  Cendres Volcan.






- Altitude de l'aérodrome : 239 ft
- Code IATA : VRN


LIPX - Villafranca Int. Verona

DERNIER METAR :
  • 192050Z VRB01KT 0400 R04/0900U FZFG BKN001 M02/M02 Q1023

METARs EXPIRÉS :
  • 192020Z VRB02KT 0200 R04/0700U FZFG VV001 M02/M02 Q1023
  • 191950Z VRB01KT 0200 R04/0325N FZFG VV001 M02/M02 Q1023
  • 191920Z VRB02KT 0200 R04/0375N FZFG VV001 M02/M02 Q1023
  • 191850Z 23003KT 0100 R04/0400N FZFG VV001 M02/M02 Q1023
  • 191820Z 09003KT 050V180 0100 R04/0225N FZFG VV001 M02/M03 Q1023

TAF TAF LIPX
Valide du 19 à 21h jusqu'au 20 à 06h UTC


192020Z 1921/2006 VRB03KT 0300 FZFG BKN004
BECMG 2003/2006 2500 BR BKN020



MET'MAP, la Météo Aéronautique d'un coup d'oeil ! - Copyright ORBIFLY Décembre 2007 - Disclaimer

ORBIFLY MET'MAP TEAM :

Programmation & Développement : Alexandra Zaïnal
Sur une idée originale de : Baudouin d'Aumeries
Assistance à la programmation : Marc-Olivier Méhu
Soutien technique & logistique : Manuel Goepfert

Contact : metmap@orbifly.com




SOURCES & CREDITS :

   NOAA